createdAt,value
2019-05-10T00:00:59.460Z,14.67
2019-05-10T00:03:46.577Z,14.50
2019-05-10T00:06:33.783Z,14.83
2019-05-10T00:09:02.910Z,14.40
2019-05-10T00:12:09.887Z,14.97
2019-05-10T00:14:56.801Z,14.37
2019-05-10T00:17:26.679Z,14.63
2019-05-10T00:19:56.447Z,14.30
2019-05-10T00:22:26.264Z,14.97
2019-05-10T00:25:03.666Z,15.67
2019-05-10T00:27:27.512Z,14.87
2019-05-10T00:29:57.273Z,15.07
2019-05-10T00:32:27.054Z,14.50
2019-05-10T00:34:56.764Z,16.17
2019-05-10T00:37:26.477Z,15.60
2019-05-10T00:39:56.238Z,15.13
2019-05-10T00:42:25.991Z,15.07
2019-05-10T00:44:55.734Z,15.47
2019-05-10T00:47:25.469Z,16.03
2019-05-10T00:49:55.169Z,15.23
2019-05-10T00:52:24.892Z,15.73
2019-05-10T00:54:54.702Z,15.00
2019-05-10T00:57:24.391Z,15.13
2019-05-10T00:59:54.195Z,15.53
2019-05-10T01:02:23.984Z,15.30
2019-05-10T01:04:53.739Z,15.80
2019-05-10T01:07:23.472Z,15.00
2019-05-10T01:09:53.220Z,15.27
2019-05-10T01:12:22.909Z,15.03
2019-05-10T01:14:52.725Z,14.40
2019-05-10T01:17:22.487Z,15.37
2019-05-10T01:19:52.279Z,15.87
2019-05-10T01:22:22.121Z,15.27
2019-05-10T01:24:51.883Z,15.03
2019-05-10T01:27:21.704Z,15.33
2019-05-10T01:29:51.413Z,15.10
2019-05-10T01:32:21.165Z,14.57
2019-05-10T01:34:50.934Z,15.60
2019-05-10T01:37:20.641Z,15.27
2019-05-10T01:39:50.381Z,15.07
2019-05-10T01:42:20.138Z,15.60
2019-05-10T01:44:49.867Z,14.83
2019-05-10T01:47:19.623Z,15.87
2019-05-10T01:49:49.355Z,15.73
2019-05-10T01:52:19.097Z,15.03
2019-05-10T01:54:48.847Z,16.13
2019-05-10T01:57:18.538Z,15.37
2019-05-10T01:59:48.249Z,15.23
2019-05-10T02:02:18.034Z,14.90
2019-05-10T02:04:47.792Z,16.37
2019-05-10T02:07:17.557Z,15.60
2019-05-10T02:09:47.367Z,15.40
2019-05-10T02:12:17.200Z,15.83
2019-05-10T02:14:47.222Z,15.63
2019-05-10T02:17:16.935Z,17.67
2019-05-10T02:19:46.669Z,19.40
2019-05-10T02:22:16.505Z,19.00
2019-05-10T02:24:46.639Z,18.23
2019-05-10T02:27:16.377Z,16.70
2019-05-10T02:29:46.146Z,16.43
2019-05-10T02:32:15.867Z,15.33
2019-05-10T02:34:45.614Z,16.57
2019-05-10T02:37:15.382Z,15.90
2019-05-10T02:39:45.112Z,15.97
2019-05-10T02:42:14.883Z,16.50
2019-05-10T02:44:44.598Z,19.57
2019-05-10T02:47:14.323Z,17.73
2019-05-10T02:49:44.084Z,16.00
2019-05-10T02:52:13.822Z,16.77
2019-05-10T02:54:45.473Z,16.37
2019-05-10T02:57:16.335Z,15.63
2019-05-10T02:59:47.567Z,15.40
2019-05-10T03:02:18.432Z,15.77
2019-05-10T03:04:48.149Z,16.47
2019-05-10T03:07:20.427Z,16.33
2019-05-10T03:09:50.762Z,16.20
2019-05-10T03:12:26.114Z,16.03
2019-05-10T03:14:58.430Z,16.77
2019-05-10T03:17:29.272Z,16.60
2019-05-10T03:20:01.195Z,16.10
2019-05-10T03:22:33.914Z,15.93
2019-05-10T03:25:03.604Z,15.83
2019-05-10T03:27:33.954Z,15.43
2019-05-10T03:30:03.834Z,15.90
2019-05-10T03:32:33.571Z,15.53
2019-05-10T03:35:03.476Z,16.27
2019-05-10T03:37:33.228Z,15.20
2019-05-10T03:40:03.161Z,15.07
2019-05-10T03:42:32.912Z,15.37
2019-05-10T03:45:02.620Z,15.17
2019-05-10T03:47:32.432Z,15.33
2019-05-10T03:50:02.148Z,15.27
2019-05-10T03:52:31.913Z,14.83
2019-05-10T03:55:01.633Z,15.77
2019-05-10T03:57:31.393Z,15.37
2019-05-10T04:00:01.192Z,15.63
2019-05-10T04:02:30.958Z,15.27
2019-05-10T04:05:00.702Z,14.73
2019-05-10T04:07:30.526Z,14.27
2019-05-10T04:10:00.246Z,14.60
2019-05-10T04:12:30.189Z,14.67
2019-05-10T04:14:59.878Z,14.77
2019-05-10T04:17:29.658Z,15.27
2019-05-10T04:19:59.458Z,14.27
2019-05-10T04:22:29.187Z,15.00
2019-05-10T04:24:58.907Z,14.87
2019-05-10T04:27:32.755Z,14.83
2019-05-10T04:30:01.900Z,14.80
2019-05-10T04:32:31.746Z,14.70
2019-05-10T04:35:01.508Z,14.63
2019-05-10T04:37:31.279Z,13.90
2019-05-10T04:40:00.992Z,14.67
2019-05-10T04:42:30.752Z,14.33
2019-05-10T04:45:00.548Z,16.07
2019-05-10T04:47:30.390Z,15.63
2019-05-10T04:50:00.106Z,17.57
2019-05-10T04:52:29.842Z,16.87
2019-05-10T04:54:59.585Z,15.10
2019-05-10T04:57:29.366Z,15.10
2019-05-10T05:00:01.894Z,15.90
2019-05-10T05:02:31.662Z,14.77
2019-05-10T05:05:01.450Z,15.70
2019-05-10T05:07:31.242Z,14.77
2019-05-10T05:10:00.988Z,15.40
2019-05-10T05:12:30.740Z,15.57
2019-05-10T05:15:00.613Z,16.30
2019-05-10T05:17:30.372Z,15.80
2019-05-10T05:20:00.153Z,16.80
2019-05-10T05:22:30.143Z,16.70
2019-05-10T05:25:01.404Z,16.57
2019-05-10T05:27:31.241Z,15.33
2019-05-10T05:30:01.004Z,16.23
2019-05-10T05:32:30.705Z,16.13
2019-05-10T05:35:00.450Z,16.07
2019-05-10T05:37:30.202Z,16.53
2019-05-10T05:40:00.208Z,16.80
2019-05-10T05:42:29.969Z,16.97
2019-05-10T05:44:59.730Z,16.90
2019-05-10T05:47:29.494Z,17.40
2019-05-10T05:49:59.267Z,16.10
2019-05-10T05:52:29.094Z,16.17
2019-05-10T05:54:59.302Z,17.13
2019-05-10T05:57:29.616Z,17.97
2019-05-10T06:00:04.112Z,18.40
2019-05-10T06:02:31.081Z,16.90
2019-05-10T06:05:00.912Z,17.67
2019-05-10T06:07:31.243Z,16.27
2019-05-10T06:10:02.081Z,19.43
2019-05-10T06:12:31.822Z,17.50
2019-05-10T06:15:01.576Z,18.30
2019-05-10T06:17:31.773Z,17.93
2019-05-10T06:20:05.865Z,17.20
2019-05-10T06:22:38.067Z,18.37
2019-05-10T06:25:04.942Z,17.70
2019-05-10T06:27:35.259Z,17.93
2019-05-10T06:30:06.415Z,16.80
2019-05-10T06:32:53.278Z,18.07
2019-05-10T06:35:21.961Z,17.97
2019-05-10T06:37:51.773Z,18.07
2019-05-10T06:40:33.480Z,18.33
2019-05-10T06:42:53.079Z,18.70
2019-05-10T06:45:22.913Z,21.23
2019-05-10T06:47:53.482Z,19.60
2019-05-10T06:50:31.651Z,19.80
2019-05-10T06:53:00.461Z,18.40
2019-05-10T06:55:27.215Z,19.20
2019-05-10T06:58:00.475Z,18.57
2019-05-10T07:00:28.374Z,19.27
2019-05-10T07:02:58.256Z,18.40
2019-05-10T07:05:27.975Z,20.10
2019-05-10T07:08:00.679Z,19.57
2019-05-10T07:10:33.775Z,19.70
2019-05-10T07:13:03.431Z,20.43
2019-05-10T07:15:35.943Z,20.03
2019-05-10T07:18:04.546Z,19.40
2019-05-10T07:20:34.401Z,20.70
2019-05-10T07:23:06.016Z,18.57
2019-05-10T07:25:37.637Z,20.57
2019-05-10T07:28:09.541Z,18.73
2019-05-10T07:30:41.317Z,19.40
2019-05-10T07:33:25.502Z,19.93
2019-05-10T07:35:55.320Z,18.90
2019-05-10T07:38:31.062Z,16.00
2019-05-10T07:40:56.496Z,14.20
2019-05-10T07:43:28.909Z,13.40
2019-05-10T07:46:05.893Z,13.13
2019-05-10T07:48:29.113Z,14.63
2019-05-10T07:50:58.879Z,13.40
2019-05-10T07:53:31.805Z,14.20
2019-05-10T07:56:06.193Z,13.00
2019-05-10T07:58:38.378Z,11.63
2019-05-10T08:01:04.366Z,12.40
2019-05-10T08:03:35.628Z,11.87
2019-05-10T08:06:05.507Z,11.77
2019-05-10T08:08:35.284Z,11.80
2019-05-10T08:11:05.025Z,11.20
2019-05-10T08:13:34.758Z,10.90
2019-05-10T08:16:05.295Z,11.47
2019-05-10T08:18:35.871Z,9.87
2019-05-10T08:21:18.747Z,10.93
2019-05-10T08:23:49.051Z,10.63
2019-05-10T08:26:24.201Z,11.03
2019-05-10T08:28:52.575Z,10.83
2019-05-10T08:31:25.918Z,11.27
2019-05-10T08:33:58.868Z,10.23
2019-05-10T08:36:25.715Z,10.03
2019-05-10T08:39:03.378Z,10.93
2019-05-10T08:41:26.980Z,10.80
2019-05-10T08:43:56.704Z,10.97
2019-05-10T08:46:37.195Z,11.00
2019-05-10T08:48:57.928Z,10.83
2019-05-10T08:51:27.697Z,10.97
2019-05-10T08:53:58.337Z,11.33
2019-05-10T08:56:28.311Z,10.60
2019-05-10T08:58:58.010Z,10.07
2019-05-10T09:01:30.441Z,9.67
2019-05-10T09:04:06.000Z,9.73
2019-05-10T09:06:32.758Z,9.30
2019-05-10T09:09:08.169Z,8.53
2019-05-10T09:11:35.597Z,7.03
2019-05-10T09:14:05.434Z,7.63
2019-05-10T09:16:43.283Z,7.08
2019-05-10T09:19:06.551Z,8.50
2019-05-10T09:21:41.240Z,8.45
2019-05-10T09:24:07.672Z,9.10
2019-05-10T09:26:37.411Z,9.18
2019-05-10T09:29:07.260Z,8.18
2019-05-10T09:31:39.362Z,9.10
2019-05-10T09:34:08.284Z,10.40
2019-05-10T09:36:38.082Z,10.77
2019-05-10T09:39:09.079Z,10.77
2019-05-10T09:41:39.261Z,10.93
2019-05-10T09:44:08.977Z,10.73
2019-05-10T09:46:38.685Z,11.53
2019-05-10T09:49:15.599Z,10.43
2019-05-10T09:51:42.092Z,10.60
2019-05-10T09:54:11.261Z,11.80
2019-05-10T09:56:44.381Z,11.47
2019-05-10T09:59:12.378Z,11.20
2019-05-10T10:01:42.147Z,10.07
2019-05-10T10:04:11.833Z,9.70
2019-05-10T10:06:42.012Z,11.50
2019-05-10T10:09:12.964Z,14.63
2019-05-10T10:11:48.093Z,11.07
2019-05-10T10:14:14.083Z,10.00
2019-05-10T10:16:49.453Z,10.53
2019-05-10T10:19:18.083Z,10.37
2019-05-10T10:21:47.603Z,12.20
2019-05-10T10:24:20.147Z,10.43
2019-05-10T10:26:53.973Z,10.20
2019-05-10T10:29:20.467Z,9.20
2019-05-10T10:31:54.858Z,10.20
2019-05-10T10:34:21.606Z,10.17
2019-05-10T10:36:51.427Z,10.27
2019-05-10T10:39:22.820Z,10.10
2019-05-10T10:41:52.580Z,9.93
2019-05-10T10:44:22.346Z,8.90
2019-05-10T10:46:52.044Z,9.17
2019-05-10T10:49:23.086Z,8.30
2019-05-10T10:51:53.122Z,7.00
2019-05-10T10:54:28.558Z,8.00
2019-05-10T10:56:54.263Z,7.87
2019-05-10T10:59:23.997Z,8.37
2019-05-10T11:02:25.300Z,10.33
2019-05-10T11:04:25.127Z,8.90
2019-05-10T11:07:09.271Z,8.30
2019-05-10T11:09:26.309Z,8.27
2019-05-10T11:11:56.021Z,8.80
2019-05-10T11:14:25.730Z,9.27
2019-05-10T11:16:57.043Z,9.67
2019-05-10T11:19:26.886Z,14.63
2019-05-10T11:21:56.672Z,12.53
2019-05-10T11:24:26.374Z,11.33
2019-05-10T11:26:56.084Z,10.30
2019-05-10T11:29:27.960Z,10.47
2019-05-10T11:32:12.346Z,11.73
2019-05-10T11:34:36.770Z,11.87
2019-05-10T11:36:59.944Z,12.17
2019-05-10T11:39:33.202Z,11.20
2019-05-10T11:42:06.755Z,13.57
2019-05-10T11:44:32.474Z,14.93
2019-05-10T11:47:02.213Z,13.23
2019-05-10T11:49:31.929Z,12.87
2019-05-10T11:52:01.841Z,11.60
2019-05-10T11:54:32.170Z,10.53
2019-05-10T11:57:06.571Z,9.77
2019-05-10T11:59:38.400Z,9.03
2019-05-10T12:02:09.363Z,9.50
2019-05-10T12:04:39.381Z,10.13
2019-05-10T12:07:09.807Z,10.17
2019-05-10T12:09:42.500Z,11.43
2019-05-10T12:12:12.309Z,12.77
2019-05-10T12:14:46.519Z,9.70
2019-05-10T12:17:14.790Z,9.53
2019-05-10T12:19:50.472Z,9.40
2019-05-10T12:22:16.246Z,9.70
2019-05-10T12:26:16.291Z,10.33
2019-05-10T12:27:25.941Z,25.43
2019-05-10T12:29:55.536Z,10.97
2019-05-10T12:32:21.387Z,10.73
2019-05-10T12:34:56.336Z,11.60
2019-05-10T12:37:22.886Z,31.80
2019-05-10T12:39:53.180Z,10.97
2019-05-10T12:42:23.424Z,11.73
2019-05-10T12:44:55.871Z,17.63
2019-05-10T12:47:24.506Z,12.53
2019-05-10T12:50:02.013Z,10.93
2019-05-10T12:52:28.558Z,9.67
2019-05-10T12:54:57.544Z,10.57
2019-05-10T12:57:27.461Z,11.17
2019-05-10T12:59:57.212Z,11.27
2019-05-10T13:02:26.944Z,11.50
2019-05-10T13:04:56.700Z,10.97
2019-05-10T13:07:26.422Z,10.97
2019-05-10T13:10:03.983Z,11.27
2019-05-10T13:12:27.532Z,12.30
2019-05-10T13:14:57.341Z,10.93
2019-05-10T13:17:27.103Z,12.13
2019-05-10T13:19:58.585Z,12.90
2019-05-10T13:22:36.674Z,11.93
2019-05-10T13:24:59.752Z,13.10
2019-05-10T13:27:29.574Z,12.17
2019-05-10T13:29:59.518Z,11.87
2019-05-10T13:32:29.237Z,12.57
2019-05-10T13:34:59.006Z,11.77
2019-05-10T13:37:29.049Z,11.87
2019-05-10T13:40:05.421Z,13.27
2019-05-10T13:42:30.264Z,14.83
2019-05-10T13:45:00.082Z,14.77
2019-05-10T13:47:29.771Z,14.83
2019-05-10T13:49:59.516Z,14.97
2019-05-10T13:52:37.555Z,22.70
2019-05-10T13:55:00.750Z,19.57
2019-05-10T13:57:33.599Z,15.47
2019-05-10T14:00:03.837Z,16.67
2019-05-10T14:02:34.904Z,16.00
2019-05-10T14:05:05.246Z,16.37
2019-05-10T14:07:35.032Z,15.60
2019-05-10T14:10:06.669Z,16.00
2019-05-10T14:12:36.413Z,16.87
2019-05-10T14:15:11.304Z,14.60
2019-05-10T14:17:39.485Z,16.20
2019-05-10T14:20:19.413Z,21.90
2019-05-10T14:22:41.383Z,16.57
2019-05-10T14:25:12.221Z,14.67
2019-05-10T14:27:41.985Z,14.50
2019-05-10T14:30:13.532Z,13.83
2019-05-10T14:32:43.276Z,15.30
2019-05-10T14:35:16.371Z,15.40
2019-05-10T14:37:47.661Z,15.87
2019-05-10T14:40:17.064Z,14.30
2019-05-10T14:42:47.533Z,14.90
2019-05-10T14:45:17.480Z,14.77
2019-05-10T14:47:50.223Z,13.63
2019-05-10T14:50:26.199Z,13.70
2019-05-10T14:52:50.446Z,14.93
2019-05-10T14:55:20.190Z,14.58
2019-05-10T14:57:49.924Z,14.60
2019-05-10T15:00:20.269Z,15.30
2019-05-10T15:02:50.032Z,15.83
2019-05-10T15:05:19.991Z,15.67
2019-05-10T15:07:51.442Z,16.62
2019-05-10T15:10:32.996Z,15.13
2019-05-10T15:13:04.003Z,15.37
2019-05-10T15:15:37.327Z,14.43
2019-05-10T15:18:05.222Z,13.83
2019-05-10T15:20:36.090Z,13.53
2019-05-10T15:23:06.121Z,20.20
2019-05-10T15:25:35.934Z,14.30
2019-05-10T15:28:05.698Z,14.00
2019-05-10T15:30:39.219Z,14.60
2019-05-10T15:33:10.242Z,12.90
2019-05-10T15:35:40.270Z,13.97
2019-05-10T15:38:10.111Z,13.70
2019-05-10T15:40:44.514Z,14.20
2019-05-10T15:43:16.881Z,15.00
2019-05-10T15:45:46.060Z,18.37
2019-05-10T15:48:14.295Z,12.90
2019-05-10T15:50:44.033Z,13.33
2019-05-10T15:53:13.885Z,14.10
2019-05-10T15:55:43.617Z,14.90
2019-05-10T15:58:13.419Z,16.07
2019-05-10T16:00:43.246Z,14.73
2019-05-10T16:03:13.032Z,12.73
2019-05-10T16:05:58.863Z,13.20
2019-05-10T16:08:16.743Z,13.03
2019-05-10T16:10:46.492Z,13.53
2019-05-10T16:13:23.233Z,12.70
2019-05-10T16:15:51.719Z,12.40
2019-05-10T16:18:23.311Z,12.57
2019-05-10T16:20:53.096Z,12.17
2019-05-10T16:23:22.872Z,13.27
2019-05-10T16:25:52.682Z,11.90
2019-05-10T16:28:22.968Z,12.50
2019-05-10T16:30:52.980Z,13.70
2019-05-10T16:33:22.806Z,12.47
2019-05-10T16:35:52.813Z,11.77
2019-05-10T16:38:22.625Z,14.17
2019-05-10T16:40:58.407Z,13.03
2019-05-10T16:43:24.808Z,12.73
2019-05-10T16:45:55.107Z,14.73
2019-05-10T16:48:28.124Z,16.87
2019-05-10T16:50:56.301Z,14.30
2019-05-10T16:53:26.026Z,21.33
2019-05-10T16:55:55.922Z,21.03
2019-05-10T16:58:25.637Z,19.30
2019-05-10T17:00:58.677Z,13.03
2019-05-10T17:03:28.750Z,12.87
2019-05-10T17:06:03.853Z,13.93
2019-05-10T17:08:35.969Z,13.57
2019-05-10T17:11:09.389Z,15.10
2019-05-10T17:13:36.287Z,14.47
2019-05-10T17:16:04.806Z,15.10
2019-05-10T17:18:35.156Z,13.73
2019-05-10T17:21:04.875Z,13.50
2019-05-10T17:23:34.561Z,14.07
2019-05-10T17:26:04.420Z,19.03
2019-05-10T17:28:35.263Z,15.50
2019-05-10T17:31:07.838Z,14.97
2019-05-10T17:33:42.687Z,15.13
2019-05-10T17:36:09.124Z,15.47
2019-05-10T17:38:39.262Z,18.40
2019-05-10T17:41:08.976Z,20.23
2019-05-10T17:43:38.788Z,16.63
2019-05-10T17:46:12.934Z,16.67
2019-05-10T17:48:40.893Z,16.67
2019-05-10T17:51:11.576Z,15.40
2019-05-10T17:53:41.759Z,15.80
2019-05-10T17:56:11.609Z,17.97
2019-05-10T17:58:41.430Z,15.23
2019-05-10T18:01:14.134Z,16.87
2019-05-10T18:03:44.054Z,16.53
2019-05-10T18:06:23.459Z,16.77
2019-05-10T18:08:45.417Z,16.17
2019-05-10T18:11:15.219Z,16.80
2019-05-10T18:13:44.984Z,16.10
2019-05-10T18:16:17.480Z,16.77
2019-05-10T18:18:48.518Z,17.93
2019-05-10T18:21:22.361Z,17.43
2019-05-10T18:23:52.558Z,17.40
2019-05-10T18:26:21.457Z,18.43
2019-05-10T18:28:51.348Z,18.63
2019-05-10T18:31:21.252Z,19.90
2019-05-10T18:34:03.348Z,19.90
2019-05-10T18:36:50.995Z,21.03
2019-05-10T18:39:17.720Z,20.77
2019-05-10T18:42:00.973Z,20.73
2019-05-10T18:44:45.827Z,20.50
2019-05-10T18:47:29.984Z,21.47
2019-05-10T18:50:02.705Z,25.10
2019-05-10T18:52:48.491Z,25.17
2019-05-10T18:55:19.157Z,24.97
2019-05-10T18:57:50.423Z,24.20
2019-05-10T19:00:23.235Z,24.53
2019-05-10T19:02:55.086Z,22.93
2019-05-10T19:05:31.561Z,23.60
2019-05-10T19:08:04.364Z,23.93
2019-05-10T19:10:27.312Z,24.60
2019-05-10T19:13:01.066Z,24.50
2019-05-10T19:15:28.549Z,24.93
2019-05-10T19:17:58.430Z,26.63
2019-05-10T19:20:28.210Z,27.20
2019-05-10T19:22:57.954Z,27.30
2019-05-10T19:25:28.533Z,27.17
2019-05-10T19:27:58.379Z,26.07
2019-05-10T19:30:28.189Z,27.47
2019-05-10T19:32:58.161Z,26.60
2019-05-10T19:35:29.918Z,27.00
2019-05-10T19:37:59.802Z,26.00
2019-05-10T19:40:29.562Z,26.10
2019-05-10T19:42:59.310Z,26.13
2019-05-10T19:45:31.206Z,27.53
2019-05-10T19:48:00.524Z,31.37
2019-05-10T19:50:31.227Z,31.77
2019-05-10T19:53:03.809Z,28.67
2019-05-10T19:55:40.001Z,28.63
2019-05-10T19:58:09.916Z,32.47
2019-05-10T20:00:39.905Z,36.47
2019-05-10T20:03:09.743Z,35.13
2019-05-10T20:05:39.733Z,30.80
2019-05-10T20:08:09.446Z,28.70
2019-05-10T20:10:39.188Z,29.03
2019-05-10T20:13:09.024Z,29.23
2019-05-10T20:15:39.544Z,30.23
2019-05-10T20:18:09.446Z,28.63
2019-05-10T20:20:39.285Z,31.33
2019-05-10T20:23:09.033Z,33.80
2019-05-10T20:25:39.002Z,33.90
2019-05-10T20:28:08.794Z,34.93
2019-05-10T20:30:38.622Z,33.57
2019-05-10T20:33:08.451Z,33.53
2019-05-10T20:35:38.166Z,34.23
2019-05-10T20:38:07.923Z,34.37
2019-05-10T20:40:37.673Z,34.50
2019-05-10T20:43:07.440Z,36.37
2019-05-10T20:45:37.194Z,37.37
2019-05-10T20:48:07.406Z,38.97
2019-05-10T20:50:37.142Z,39.30
2019-05-10T20:53:06.856Z,38.87
2019-05-10T20:55:36.676Z,39.70
2019-05-10T20:58:06.642Z,39.43
2019-05-10T21:00:36.462Z,37.43
2019-05-10T21:03:06.236Z,36.80
2019-05-10T21:05:38.056Z,36.80
2019-05-10T21:08:16.597Z,35.50
2019-05-10T21:10:39.367Z,35.77
2019-05-10T21:13:09.135Z,35.50
2019-05-10T21:15:38.863Z,35.03
2019-05-10T21:18:08.714Z,33.00
2019-05-10T21:20:38.448Z,32.93
2019-05-10T21:23:08.164Z,33.57
2019-05-10T21:25:37.924Z,33.43
2019-05-10T21:28:08.203Z,33.10
2019-05-10T21:30:37.906Z,33.10
2019-05-10T21:33:07.618Z,32.67
2019-05-10T21:35:37.436Z,33.57
2019-05-10T21:38:07.122Z,34.80
2019-05-10T21:40:39.847Z,34.13
2019-05-10T21:43:09.584Z,33.77
2019-05-10T21:45:39.401Z,35.53
2019-05-10T21:48:09.131Z,35.60
2019-05-10T21:50:38.917Z,36.63
2019-05-10T21:53:08.874Z,37.03
2019-05-10T21:55:38.597Z,38.80
2019-05-10T21:58:09.890Z,37.13
2019-05-10T22:00:43.960Z,35.40
2019-05-10T22:03:13.668Z,36.20
2019-05-10T22:05:43.484Z,33.87
2019-05-10T22:08:21.863Z,37.53
2019-05-10T22:10:51.597Z,41.53
2019-05-10T22:13:21.308Z,42.97
2019-05-10T22:15:51.075Z,42.03
2019-05-10T22:18:20.929Z,45.83
2019-05-10T22:20:50.761Z,41.73
2019-05-10T22:23:20.508Z,39.17
2019-05-10T22:25:50.236Z,39.63
2019-05-10T22:28:20.015Z,38.50
2019-05-10T22:30:52.673Z,39.87
2019-05-10T22:33:22.379Z,40.20
2019-05-10T22:35:52.133Z,38.73
2019-05-10T22:38:21.845Z,39.50
2019-05-10T22:40:51.593Z,40.23
2019-05-10T22:43:21.376Z,41.03
2019-05-10T22:45:51.151Z,38.07
2019-05-10T22:48:20.845Z,39.13
2019-05-10T22:50:50.532Z,39.27
2019-05-10T22:53:20.260Z,39.63
2019-05-10T22:55:49.984Z,42.73
2019-05-10T22:58:20.356Z,38.13
2019-05-10T23:00:50.156Z,39.13
2019-05-10T23:03:23.906Z,39.23
2019-05-10T23:05:51.283Z,39.03
2019-05-10T23:08:21.039Z,38.00
2019-05-10T23:10:50.755Z,40.30
2019-05-10T23:13:20.593Z,41.80
2019-05-10T23:15:50.281Z,41.67
2019-05-10T23:18:20.008Z,43.73
2019-05-10T23:20:49.738Z,42.03
2019-05-10T23:23:21.101Z,43.77
2019-05-10T23:25:51.101Z,42.53
2019-05-10T23:28:20.797Z,42.80
2019-05-10T23:30:50.541Z,42.03
2019-05-10T23:33:20.234Z,41.80
2019-05-10T23:35:50.013Z,42.47
2019-05-10T23:38:19.756Z,40.50
2019-05-10T23:40:49.485Z,42.40
2019-05-10T23:43:19.172Z,43.27
2019-05-10T23:45:48.898Z,40.53
2019-05-10T23:48:18.639Z,41.20
2019-05-10T23:50:48.357Z,41.43
2019-05-10T23:53:18.110Z,41.77
2019-05-10T23:55:47.861Z,40.97
2019-05-10T23:58:17.569Z,42.17
